sensor_id;sensor_type;location;lat;lon;timestamp;P1;durP1;ratioP1;P2;durP2;ratioP2
71759;SDS011;59919;48.112;16.280;2023-06-22T00:02:26;2.85;;;2.33;;
71759;SDS011;59919;48.112;16.280;2023-06-22T00:05:00;2.47;;;2.28;;
71759;SDS011;59919;48.112;16.280;2023-06-22T00:07:33;2.80;;;2.53;;
71759;SDS011;59919;48.112;16.280;2023-06-22T00:10:07;2.17;;;1.98;;
71759;SDS011;59919;48.112;16.280;2023-06-22T00:12:41;2.50;;;2.30;;
71759;SDS011;59919;48.112;16.280;2023-06-22T00:15:12;2.60;;;2.40;;
71759;SDS011;59919;48.112;16.280;2023-06-22T00:17:45;3.50;;;2.28;;
71759;SDS011;59919;48.112;16.280;2023-06-22T00:20:16;2.80;;;2.40;;
71759;SDS011;59919;48.112;16.280;2023-06-22T00:22:50;2.55;;;2.35;;
71759;SDS011;59919;48.112;16.280;2023-06-22T00:25:21;2.42;;;2.22;;
71759;SDS011;59919;48.112;16.280;2023-06-22T00:27:55;2.70;;;2.50;;
71759;SDS011;59919;48.112;16.280;2023-06-22T00:30:29;2.83;;;2.50;;
71759;SDS011;59919;48.112;16.280;2023-06-22T00:33:07;3.25;;;2.30;;
71759;SDS011;59919;48.112;16.280;2023-06-22T00:35:42;2.60;;;2.25;;
71759;SDS011;59919;48.112;16.280;2023-06-22T00:38:16;2.60;;;2.40;;
71759;SDS011;59919;48.112;16.280;2023-06-22T00:40:50;2.75;;;2.22;;
71759;SDS011;59919;48.112;16.280;2023-06-22T00:43:21;2.30;;;2.08;;
71759;SDS011;59919;48.112;16.280;2023-06-22T00:45:55;2.90;;;2.15;;
71759;SDS011;59919;48.112;16.280;2023-06-22T00:48:27;2.13;;;1.92;;
71759;SDS011;59919;48.112;16.280;2023-06-22T00:50:59;2.78;;;2.38;;
71759;SDS011;59919;48.112;16.280;2023-06-22T00:53:30;3.28;;;1.95;;
71759;SDS011;59919;48.112;16.280;2023-06-22T00:56:05;2.38;;;2.17;;
71759;SDS011;59919;48.112;16.280;2023-06-22T00:58:38;2.38;;;2.15;;
71759;SDS011;59919;48.112;16.280;2023-06-22T01:01:12;3.30;;;2.38;;
71759;SDS011;59919;48.112;16.280;2023-06-22T01:03:44;2.25;;;2.00;;
71759;SDS011;59919;48.112;16.280;2023-06-22T01:06:19;3.03;;;2.17;;
71759;SDS011;59919;48.112;16.280;2023-06-22T01:09:02;2.60;;;2.22;;
71759;SDS011;59919;48.112;16.280;2023-06-22T01:11:41;3.30;;;2.05;;
71759;SDS011;59919;48.112;16.280;2023-06-22T01:14:18;2.15;;;1.95;;
71759;SDS011;59919;48.112;16.280;2023-06-22T01:16:59;2.00;;;1.90;;
71759;SDS011;59919;48.112;16.280;2023-06-22T01:19:38;2.00;;;1.80;;
71759;SDS011;59919;48.112;16.280;2023-06-22T01:22:18;2.60;;;2.40;;
71759;SDS011;59919;48.112;16.280;2023-06-22T01:25:10;2.47;;;2.10;;
71759;SDS011;59919;48.112;16.280;2023-06-22T01:27:53;2.28;;;2.08;;
71759;SDS011;59919;48.112;16.280;2023-06-22T01:30:33;2.22;;;2.03;;
71759;SDS011;59919;48.112;16.280;2023-06-22T01:33:05;2.25;;;2.05;;
71759;SDS011;59919;48.112;16.280;2023-06-22T01:35:42;2.33;;;2.10;;
71759;SDS011;59919;48.112;16.280;2023-06-22T01:38:15;2.63;;;2.20;;
71759;SDS011;59919;48.112;16.280;2023-06-22T01:40:46;2.20;;;2.00;;
71759;SDS011;59919;48.112;16.280;2023-06-22T01:43:17;2.92;;;2.65;;
71759;SDS011;59919;48.112;16.280;2023-06-22T01:45:50;3.28;;;2.05;;
71759;SDS011;59919;48.112;16.280;2023-06-22T01:48:22;2.50;;;2.17;;
71759;SDS011;59919;48.112;16.280;2023-06-22T01:50:54;2.20;;;2.00;;
71759;SDS011;59919;48.112;16.280;2023-06-22T01:53:26;3.58;;;2.38;;
71759;SDS011;59919;48.112;16.280;2023-06-22T01:55:57;3.35;;;2.00;;
71759;SDS011;59919;48.112;16.280;2023-06-22T01:58:31;2.55;;;1.90;;
71759;SDS011;59919;48.112;16.280;2023-06-22T02:03:46;2.40;;;2.08;;
71759;SDS011;59919;48.112;16.280;2023-06-22T02:06:25;2.17;;;1.75;;
71759;SDS011;59919;48.112;16.280;2023-06-22T02:09:16;2.95;;;2.00;;
71759;SDS011;59919;48.112;16.280;2023-06-22T02:11:48;2.10;;;1.90;;
71759;SDS011;59919;48.112;16.280;2023-06-22T02:16:59;2.20;;;1.85;;
71759;SDS011;59919;48.112;16.280;2023-06-22T02:19:36;2.13;;;1.93;;
71759;SDS011;59919;48.112;16.280;2023-06-22T02:22:07;1.92;;;1.73;;
71759;SDS011;59919;48.112;16.280;2023-06-22T02:24:39;2.58;;;1.90;;
71759;SDS011;59919;48.112;16.280;2023-06-22T02:27:15;2.10;;;1.90;;
71759;SDS011;59919;48.112;16.280;2023-06-22T02:29:48;3.30;;;2.10;;
71759;SDS011;59919;48.112;16.280;2023-06-22T02:32:25;1.73;;;1.63;;
71759;SDS011;59919;48.112;16.280;2023-06-22T02:34:59;2.15;;;1.95;;
71759;SDS011;59919;48.112;16.280;2023-06-22T02:37:31;2.30;;;1.75;;
71759;SDS011;59919;48.112;16.280;2023-06-22T02:40:02;2.35;;;1.90;;
71759;SDS011;59919;48.112;16.280;2023-06-22T02:42:39;2.30;;;1.97;;
71759;SDS011;59919;48.112;16.280;2023-06-22T02:45:10;2.30;;;1.90;;
71759;SDS011;59919;48.112;16.280;2023-06-22T02:47:43;3.17;;;2.10;;
71759;SDS011;59919;48.112;16.280;2023-06-22T02:50:35;2.08;;;1.90;;
71759;SDS011;59919;48.112;16.280;2023-06-22T02:53:13;2.05;;;1.65;;
71759;SDS011;59919;48.112;16.280;2023-06-22T02:55:46;1.92;;;1.70;;
71759;SDS011;59919;48.112;16.280;2023-06-22T02:58:17;2.97;;;2.40;;
71759;SDS011;59919;48.112;16.280;2023-06-22T03:00:48;2.55;;;2.08;;
71759;SDS011;59919;48.112;16.280;2023-06-22T03:03:23;2.15;;;1.95;;
71759;SDS011;59919;48.112;16.280;2023-06-22T03:05:59;2.20;;;1.80;;
71759;SDS011;59919;48.112;16.280;2023-06-22T03:08:34;2.45;;;1.90;;
71759;SDS011;59919;48.112;16.280;2023-06-22T03:11:06;2.10;;;1.90;;
71759;SDS011;59919;48.112;16.280;2023-06-22T03:13:43;2.17;;;1.98;;
71759;SDS011;59919;48.112;16.280;2023-06-22T03:16:18;2.25;;;2.03;;
71759;SDS011;59919;48.112;16.280;2023-06-22T03:18:50;2.28;;;1.98;;
71759;SDS011;59919;48.112;16.280;2023-06-22T03:21:29;3.90;;;1.97;;
71759;SDS011;59919;48.112;16.280;2023-06-22T03:24:02;2.22;;;1.88;;
71759;SDS011;59919;48.112;16.280;2023-06-22T03:26:37;1.85;;;1.58;;
71759;SDS011;59919;48.112;16.280;2023-06-22T03:31:42;2.35;;;1.80;;
71759;SDS011;59919;48.112;16.280;2023-06-22T03:34:13;2.38;;;1.73;;
71759;SDS011;59919;48.112;16.280;2023-06-22T03:36:47;2.15;;;1.80;;
71759;SDS011;59919;48.112;16.280;2023-06-22T03:39:18;2.67;;;1.88;;
71759;SDS011;59919;48.112;16.280;2023-06-22T03:41:49;2.38;;;2.10;;
71759;SDS011;59919;48.112;16.280;2023-06-22T03:44:20;2.35;;;1.80;;
71759;SDS011;59919;48.112;16.280;2023-06-22T03:46:51;1.85;;;1.70;;
71759;SDS011;59919;48.112;16.280;2023-06-22T03:49:25;2.63;;;1.90;;
71759;SDS011;59919;48.112;16.280;2023-06-22T03:51:56;2.55;;;1.98;;
71759;SDS011;59919;48.112;16.280;2023-06-22T03:54:28;2.63;;;2.00;;
71759;SDS011;59919;48.112;16.280;2023-06-22T03:56:59;1.95;;;1.50;;
71759;SDS011;59919;48.112;16.280;2023-06-22T03:59:32;2.20;;;1.85;;
71759;SDS011;59919;48.112;16.280;2023-06-22T04:02:04;3.25;;;2.33;;
71759;SDS011;59919;48.112;16.280;2023-06-22T04:04:35;3.38;;;2.00;;
71759;SDS011;59919;48.112;16.280;2023-06-22T04:07:10;2.28;;;1.75;;
71759;SDS011;59919;48.112;16.280;2023-06-22T04:09:48;2.30;;;1.90;;
71759;SDS011;59919;48.112;16.280;2023-06-22T04:12:24;2.00;;;1.70;;
71759;SDS011;59919;48.112;16.280;2023-06-22T04:15:00;1.90;;;1.77;;
71759;SDS011;59919;48.112;16.280;2023-06-22T04:17:32;2.55;;;2.00;;
71759;SDS011;59919;48.112;16.280;2023-06-22T04:20:06;2.05;;;1.83;;
71759;SDS011;59919;48.112;16.280;2023-06-22T04:22:40;2.13;;;1.70;;
71759;SDS011;59919;48.112;16.280;2023-06-22T04:25:11;2.33;;;1.65;;
71759;SDS011;59919;48.112;16.280;2023-06-22T04:27:42;2.10;;;1.90;;
71759;SDS011;59919;48.112;16.280;2023-06-22T04:30:14;2.10;;;1.90;;
71759;SDS011;59919;48.112;16.280;2023-06-22T04:32:47;2.45;;;2.00;;
71759;SDS011;59919;48.112;16.280;2023-06-22T04:35:28;1.83;;;1.65;;
71759;SDS011;59919;48.112;16.280;2023-06-22T04:38:02;3.53;;;1.90;;
71759;SDS011;59919;48.112;16.280;2023-06-22T04:40:34;1.70;;;1.60;;
71759;SDS011;59919;48.112;16.280;2023-06-22T04:43:06;2.42;;;1.90;;
71759;SDS011;59919;48.112;16.280;2023-06-22T04:45:37;2.72;;;1.92;;
71759;SDS011;59919;48.112;16.280;2023-06-22T04:48:11;2.92;;;1.60;;
71759;SDS011;59919;48.112;16.280;2023-06-22T04:50:46;2.55;;;1.85;;
71759;SDS011;59919;48.112;16.280;2023-06-22T04:53:19;1.88;;;1.52;;
71759;SDS011;59919;48.112;16.280;2023-06-22T04:55:53;2.42;;;2.00;;
71759;SDS011;59919;48.112;16.280;2023-06-22T04:58:26;2.70;;;2.13;;
71759;SDS011;59919;48.112;16.280;2023-06-22T05:00:59;1.88;;;1.70;;
71759;SDS011;59919;48.112;16.280;2023-06-22T05:03:30;1.90;;;1.70;;
71759;SDS011;59919;48.112;16.280;2023-06-22T05:06:03;2.42;;;1.80;;
71759;SDS011;59919;48.112;16.280;2023-06-22T05:08:39;2.15;;;1.70;;
71759;SDS011;59919;48.112;16.280;2023-06-22T05:11:10;3.20;;;1.90;;
71759;SDS011;59919;48.112;16.280;2023-06-22T05:13:47;2.15;;;1.75;;
71759;SDS011;59919;48.112;16.280;2023-06-22T05:16:21;1.67;;;1.45;;
71759;SDS011;59919;48.112;16.280;2023-06-22T05:18:54;1.58;;;1.48;;
71759;SDS011;59919;48.112;16.280;2023-06-22T05:21:27;1.88;;;1.60;;
71759;SDS011;59919;48.112;16.280;2023-06-22T05:23:58;1.77;;;1.60;;
71759;SDS011;59919;48.112;16.280;2023-06-22T05:26:34;2.15;;;1.95;;
71759;SDS011;59919;48.112;16.280;2023-06-22T05:29:05;1.85;;;1.58;;
71759;SDS011;59919;48.112;16.280;2023-06-22T05:31:37;3.13;;;1.70;;
71759;SDS011;59919;48.112;16.280;2023-06-22T05:34:08;1.77;;;1.60;;
71759;SDS011;59919;48.112;16.280;2023-06-22T05:36:42;3.20;;;1.80;;
71759;SDS011;59919;48.112;16.280;2023-06-22T05:39:15;2.33;;;1.70;;
71759;SDS011;59919;48.112;16.280;2023-06-22T05:41:46;1.52;;;1.40;;
71759;SDS011;59919;48.112;16.280;2023-06-22T05:44:20;1.95;;;1.60;;
71759;SDS011;59919;48.112;16.280;2023-06-22T05:46:51;2.70;;;1.50;;
71759;SDS011;59919;48.112;16.280;2023-06-22T05:49:22;2.00;;;1.80;;
71759;SDS011;59919;48.112;16.280;2023-06-22T05:51:55;1.50;;;1.30;;
71759;SDS011;59919;48.112;16.280;2023-06-22T05:54:27;2.08;;;1.80;;
71759;SDS011;59919;48.112;16.280;2023-06-22T05:56:59;2.25;;;1.40;;
71759;SDS011;59919;48.112;16.280;2023-06-22T05:59:30;2.15;;;1.70;;
71759;SDS011;59919;48.112;16.280;2023-06-22T06:02:03;1.75;;;1.60;;
71759;SDS011;59919;48.112;16.280;2023-06-22T06:04:40;1.65;;;1.55;;
71759;SDS011;59919;48.112;16.280;2023-06-22T06:07:13;2.58;;;1.40;;
71759;SDS011;59919;48.112;16.280;2023-06-22T06:09:47;2.20;;;1.65;;
71759;SDS011;59919;48.112;16.280;2023-06-22T06:12:18;1.90;;;1.70;;
71759;SDS011;59919;48.112;16.280;2023-06-22T06:14:52;2.13;;;1.88;;
71759;SDS011;59919;48.112;16.280;2023-06-22T06:17:27;3.85;;;1.90;;
71759;SDS011;59919;48.112;16.280;2023-06-22T06:20:03;3.75;;;1.80;;
71759;SDS011;59919;48.112;16.280;2023-06-22T06:22:36;3.13;;;1.60;;
71759;SDS011;59919;48.112;16.280;2023-06-22T06:25:07;2.80;;;2.20;;
71759;SDS011;59919;48.112;16.280;2023-06-22T06:27:39;2.22;;;1.60;;
71759;SDS011;59919;48.112;16.280;2023-06-22T06:30:13;4.40;;;2.22;;
71759;SDS011;59919;48.112;16.280;2023-06-22T06:32:46;3.72;;;2.00;;
71759;SDS011;59919;48.112;16.280;2023-06-22T06:35:17;2.85;;;1.88;;
71759;SDS011;59919;48.112;16.280;2023-06-22T06:37:49;2.13;;;1.90;;
71759;SDS011;59919;48.112;16.280;2023-06-22T06:40:21;2.03;;;1.58;;
71759;SDS011;59919;48.112;16.280;2023-06-22T06:42:52;2.20;;;1.63;;
71759;SDS011;59919;48.112;16.280;2023-06-22T06:45:23;1.80;;;1.63;;
71759;SDS011;59919;48.112;16.280;2023-06-22T06:47:56;3.08;;;1.80;;
71759;SDS011;59919;48.112;16.280;2023-06-22T06:50:29;2.03;;;1.75;;
71759;SDS011;59919;48.112;16.280;2023-06-22T06:53:05;2.15;;;1.60;;
71759;SDS011;59919;48.112;16.280;2023-06-22T06:55:36;1.52;;;1.40;;
71759;SDS011;59919;48.112;16.280;2023-06-22T06:58:08;2.55;;;1.75;;
71759;SDS011;59919;48.112;16.280;2023-06-22T07:00:40;2.10;;;1.73;;
71759;SDS011;59919;48.112;16.280;2023-06-22T07:03:11;2.38;;;1.70;;
71759;SDS011;59919;48.112;16.280;2023-06-22T07:05:43;2.83;;;1.90;;
71759;SDS011;59919;48.112;16.280;2023-06-22T07:08:22;2.38;;;1.85;;
71759;SDS011;59919;48.112;16.280;2023-06-22T07:10:53;2.30;;;1.75;;
71759;SDS011;59919;48.112;16.280;2023-06-22T07:13:25;2.58;;;1.77;;
71759;SDS011;59919;48.112;16.280;2023-06-22T07:15:56;2.15;;;1.67;;
71759;SDS011;59919;48.112;16.280;2023-06-22T07:18:27;3.05;;;1.80;;
71759;SDS011;59919;48.112;16.280;2023-06-22T07:21:01;2.22;;;1.67;;
71759;SDS011;59919;48.112;16.280;2023-06-22T07:23:37;2.58;;;1.92;;
71759;SDS011;59919;48.112;16.280;2023-06-22T07:26:08;2.78;;;1.80;;
71759;SDS011;59919;48.112;16.280;2023-06-22T07:28:42;2.30;;;1.90;;
71759;SDS011;59919;48.112;16.280;2023-06-22T07:31:13;2.00;;;1.70;;
71759;SDS011;59919;48.112;16.280;2023-06-22T07:33:44;2.78;;;2.00;;
71759;SDS011;59919;48.112;16.280;2023-06-22T07:36:16;2.95;;;1.88;;
71759;SDS011;59919;48.112;16.280;2023-06-22T07:38:52;2.42;;;1.80;;
71759;SDS011;59919;48.112;16.280;2023-06-22T07:41:26;2.78;;;1.60;;
71759;SDS011;59919;48.112;16.280;2023-06-22T07:44:03;2.10;;;1.80;;
71759;SDS011;59919;48.112;16.280;2023-06-22T07:46:36;3.97;;;2.28;;
71759;SDS011;59919;48.112;16.280;2023-06-22T07:49:07;2.55;;;1.67;;
71759;SDS011;59919;48.112;16.280;2023-06-22T07:51:38;1.77;;;1.48;;
71759;SDS011;59919;48.112;16.280;2023-06-22T07:54:09;2.13;;;1.83;;
71759;SDS011;59919;48.112;16.280;2023-06-22T07:56:41;3.03;;;1.90;;
71759;SDS011;59919;48.112;16.280;2023-06-22T07:59:12;1.88;;;1.63;;
71759;SDS011;59919;48.112;16.280;2023-06-22T08:01:43;2.40;;;1.80;;
71759;SDS011;59919;48.112;16.280;2023-06-22T08:04:14;2.10;;;1.88;;
71759;SDS011;59919;48.112;16.280;2023-06-22T08:06:45;4.00;;;2.15;;
71759;SDS011;59919;48.112;16.280;2023-06-22T08:09:19;4.38;;;2.55;;
71759;SDS011;59919;48.112;16.280;2023-06-22T08:11:53;2.95;;;2.20;;
71759;SDS011;59919;48.112;16.280;2023-06-22T08:14:26;4.15;;;2.15;;
71759;SDS011;59919;48.112;16.280;2023-06-22T08:16:58;2.92;;;1.92;;
71759;SDS011;59919;48.112;16.280;2023-06-22T08:19:29;4.15;;;2.15;;
71759;SDS011;59919;48.112;16.280;2023-06-22T08:22:00;2.13;;;1.80;;
71759;SDS011;59919;48.112;16.280;2023-06-22T08:24:34;3.17;;;2.25;;
71759;SDS011;59919;48.112;16.280;2023-06-22T08:27:07;2.55;;;2.00;;
71759;SDS011;59919;48.112;16.280;2023-06-22T08:29:49;5.30;;;2.15;;
71759;SDS011;59919;48.112;16.280;2023-06-22T08:32:21;3.05;;;2.42;;
71759;SDS011;59919;48.112;16.280;2023-06-22T08:34:55;3.38;;;2.20;;
71759;SDS011;59919;48.112;16.280;2023-06-22T08:37:27;4.18;;;2.08;;
71759;SDS011;59919;48.112;16.280;2023-06-22T08:40:06;2.60;;;2.15;;
71759;SDS011;59919;48.112;16.280;2023-06-22T08:42:42;2.78;;;1.80;;
71759;SDS011;59919;48.112;16.280;2023-06-22T08:45:14;3.05;;;2.15;;
71759;SDS011;59919;48.112;16.280;2023-06-22T08:47:48;2.28;;;1.95;;
71759;SDS011;59919;48.112;16.280;2023-06-22T08:50:21;4.80;;;2.30;;
71759;SDS011;59919;48.112;16.280;2023-06-22T08:52:55;15.82;;;3.15;;
71759;SDS011;59919;48.112;16.280;2023-06-22T08:55:27;5.70;;;3.33;;
71759;SDS011;59919;48.112;16.280;2023-06-22T08:57:58;11.35;;;3.22;;
71759;SDS011;59919;48.112;16.280;2023-06-22T09:00:31;15.32;;;3.17;;
71759;SDS011;59919;48.112;16.280;2023-06-22T09:03:05;6.35;;;3.10;;
71759;SDS011;59919;48.112;16.280;2023-06-22T09:05:39;16.70;;;3.25;;
71759;SDS011;59919;48.112;16.280;2023-06-22T09:08:13;12.38;;;3.25;;
71759;SDS011;59919;48.112;16.280;2023-06-22T09:10:48;12.73;;;3.13;;
71759;SDS011;59919;48.112;16.280;2023-06-22T09:13:19;8.63;;;3.47;;
71759;SDS011;59919;48.112;16.280;2023-06-22T09:15:50;5.97;;;3.05;;
71759;SDS011;59919;48.112;16.280;2023-06-22T09:18:21;9.52;;;2.90;;
71759;SDS011;59919;48.112;16.280;2023-06-22T09:20:55;8.27;;;2.95;;
71759;SDS011;59919;48.112;16.280;2023-06-22T09:23:29;10.07;;;2.67;;
71759;SDS011;59919;48.112;16.280;2023-06-22T09:26:01;7.80;;;2.70;;
71759;SDS011;59919;48.112;16.280;2023-06-22T09:28:32;5.95;;;2.78;;
71759;SDS011;59919;48.112;16.280;2023-06-22T09:31:08;9.50;;;2.97;;
71759;SDS011;59919;48.112;16.280;2023-06-22T09:33:39;10.32;;;2.88;;
71759;SDS011;59919;48.112;16.280;2023-06-22T09:36:13;6.03;;;2.88;;
71759;SDS011;59919;48.112;16.280;2023-06-22T09:38:47;5.82;;;2.67;;
71759;SDS011;59919;48.112;16.280;2023-06-22T09:41:19;4.88;;;2.50;;
71759;SDS011;59919;48.112;16.280;2023-06-22T09:43:50;5.47;;;2.63;;
71759;SDS011;59919;48.112;16.280;2023-06-22T09:46:22;6.82;;;2.72;;
71759;SDS011;59919;48.112;16.280;2023-06-22T09:48:55;7.68;;;2.33;;
71759;SDS011;59919;48.112;16.280;2023-06-22T09:51:27;6.32;;;2.65;;
71759;SDS011;59919;48.112;16.280;2023-06-22T09:53:58;6.28;;;2.88;;
71759;SDS011;59919;48.112;16.280;2023-06-22T09:56:31;3.85;;;2.83;;
71759;SDS011;59919;48.112;16.280;2023-06-22T09:59:05;4.05;;;2.80;;
71759;SDS011;59919;48.112;16.280;2023-06-22T10:01:36;5.75;;;2.35;;
71759;SDS011;59919;48.112;16.280;2023-06-22T10:04:09;5.25;;;2.90;;
71759;SDS011;59919;48.112;16.280;2023-06-22T10:06:40;4.50;;;2.72;;
71759;SDS011;59919;48.112;16.280;2023-06-22T10:09:11;5.20;;;2.92;;
71759;SDS011;59919;48.112;16.280;2023-06-22T10:11:42;4.97;;;3.00;;
71759;SDS011;59919;48.112;16.280;2023-06-22T10:14:13;3.45;;;2.60;;
71759;SDS011;59919;48.112;16.280;2023-06-22T10:16:45;4.78;;;3.10;;
71759;SDS011;59919;48.112;16.280;2023-06-22T10:19:16;5.45;;;3.17;;
71759;SDS011;59919;48.112;16.280;2023-06-22T10:21:49;5.05;;;2.67;;
71759;SDS011;59919;48.112;16.280;2023-06-22T10:24:20;6.15;;;3.08;;
71759;SDS011;59919;48.112;16.280;2023-06-22T10:26:51;4.80;;;2.60;;
71759;SDS011;59919;48.112;16.280;2023-06-22T10:29:25;4.93;;;2.75;;
71759;SDS011;59919;48.112;16.280;2023-06-22T10:31:58;3.90;;;2.63;;
71759;SDS011;59919;48.112;16.280;2023-06-22T10:34:32;5.38;;;3.03;;
71759;SDS011;59919;48.112;16.280;2023-06-22T10:37:04;5.70;;;3.10;;
71759;SDS011;59919;48.112;16.280;2023-06-22T10:39:38;7.97;;;3.10;;
71759;SDS011;59919;48.112;16.280;2023-06-22T10:42:12;7.15;;;3.83;;
71759;SDS011;59919;48.112;16.280;2023-06-22T10:44:45;6.50;;;3.10;;
71759;SDS011;59919;48.112;16.280;2023-06-22T10:47:17;8.07;;;3.45;;
71759;SDS011;59919;48.112;16.280;2023-06-22T10:49:50;11.23;;;3.30;;
71759;SDS011;59919;48.112;16.280;2023-06-22T10:52:21;10.98;;;3.28;;
71759;SDS011;59919;48.112;16.280;2023-06-22T10:54:55;7.07;;;3.35;;
71759;SDS011;59919;48.112;16.280;2023-06-22T10:57:26;6.40;;;2.60;;
71759;SDS011;59919;48.112;16.280;2023-06-22T10:59:57;13.65;;;3.55;;
71759;SDS011;59919;48.112;16.280;2023-06-22T11:02:28;10.48;;;3.10;;
71759;SDS011;59919;48.112;16.280;2023-06-22T11:04:59;5.22;;;3.20;;
71759;SDS011;59919;48.112;16.280;2023-06-22T11:07:31;7.80;;;2.72;;
71759;SDS011;59919;48.112;16.280;2023-06-22T11:10:03;7.78;;;3.72;;
71759;SDS011;59919;48.112;16.280;2023-06-22T11:12:34;5.18;;;2.72;;
71759;SDS011;59919;48.112;16.280;2023-06-22T11:15:08;10.38;;;3.30;;
71759;SDS011;59919;48.112;16.280;2023-06-22T11:17:39;9.18;;;3.25;;
71759;SDS011;59919;48.112;16.280;2023-06-22T11:20:11;11.85;;;3.95;;
71759;SDS011;59919;48.112;16.280;2023-06-22T11:22:42;13.48;;;3.70;;
71759;SDS011;59919;48.112;16.280;2023-06-22T11:25:13;9.52;;;3.33;;
71759;SDS011;59919;48.112;16.280;2023-06-22T11:27:47;8.90;;;3.20;;
71759;SDS011;59919;48.112;16.280;2023-06-22T11:30:18;10.95;;;2.90;;
71759;SDS011;59919;48.112;16.280;2023-06-22T11:32:50;13.00;;;3.85;;
71759;SDS011;59919;48.112;16.280;2023-06-22T11:35:21;12.30;;;3.42;;
71759;SDS011;59919;48.112;16.280;2023-06-22T11:37:55;14.63;;;3.80;;
71759;SDS011;59919;48.112;16.280;2023-06-22T11:40:26;11.18;;;3.72;;
71759;SDS011;59919;48.112;16.280;2023-06-22T11:43:00;13.15;;;3.70;;
71759;SDS011;59919;48.112;16.280;2023-06-22T11:45:31;10.43;;;3.70;;
71759;SDS011;59919;48.112;16.280;2023-06-22T11:48:05;12.25;;;3.58;;
71759;SDS011;59919;48.112;16.280;2023-06-22T11:50:36;16.55;;;4.07;;
71759;SDS011;59919;48.112;16.280;2023-06-22T11:53:09;14.48;;;4.30;;
71759;SDS011;59919;48.112;16.280;2023-06-22T11:55:47;9.88;;;3.20;;
71759;SDS011;59919;48.112;16.280;2023-06-22T11:58:19;11.10;;;3.45;;
71759;SDS011;59919;48.112;16.280;2023-06-22T12:00:50;11.35;;;3.33;;
71759;SDS011;59919;48.112;16.280;2023-06-22T12:03:22;12.23;;;3.42;;
71759;SDS011;59919;48.112;16.280;2023-06-22T12:05:53;10.95;;;3.47;;
71759;SDS011;59919;48.112;16.280;2023-06-22T12:08:24;9.63;;;3.53;;
71759;SDS011;59919;48.112;16.280;2023-06-22T12:10:56;10.68;;;3.35;;
71759;SDS011;59919;48.112;16.280;2023-06-22T12:13:28;9.23;;;3.22;;
71759;SDS011;59919;48.112;16.280;2023-06-22T12:15:59;11.25;;;2.97;;
71759;SDS011;59919;48.112;16.280;2023-06-22T12:18:31;9.57;;;3.25;;
71759;SDS011;59919;48.112;16.280;2023-06-22T12:21:09;9.50;;;3.30;;
71759;SDS011;59919;48.112;16.280;2023-06-22T12:23:40;7.25;;;3.17;;
71759;SDS011;59919;48.112;16.280;2023-06-22T12:26:11;12.00;;;4.35;;
71759;SDS011;59919;48.112;16.280;2023-06-22T12:28:42;10.93;;;3.28;;
71759;SDS011;59919;48.112;16.280;2023-06-22T12:31:14;8.50;;;3.17;;
71759;SDS011;59919;48.112;16.280;2023-06-22T12:33:49;7.43;;;3.28;;
71759;SDS011;59919;48.112;16.280;2023-06-22T12:36:23;7.10;;;3.10;;
71759;SDS011;59919;48.112;16.280;2023-06-22T12:38:56;8.27;;;3.25;;
71759;SDS011;59919;48.112;16.280;2023-06-22T12:41:27;5.90;;;2.90;;
71759;SDS011;59919;48.112;16.280;2023-06-22T12:43:58;10.00;;;2.92;;
71759;SDS011;59919;48.112;16.280;2023-06-22T12:46:31;8.35;;;2.92;;
71759;SDS011;59919;48.112;16.280;2023-06-22T12:49:08;6.90;;;3.33;;
71759;SDS011;59919;48.112;16.280;2023-06-22T12:51:39;8.05;;;2.90;;
71759;SDS011;59919;48.112;16.280;2023-06-22T12:54:12;7.22;;;2.70;;
71759;SDS011;59919;48.112;16.280;2023-06-22T12:56:43;7.80;;;3.08;;
71759;SDS011;59919;48.112;16.280;2023-06-22T12:59:17;5.05;;;2.67;;
71759;SDS011;59919;48.112;16.280;2023-06-22T13:01:53;7.13;;;2.93;;
71759;SDS011;59919;48.112;16.280;2023-06-22T13:04:24;9.75;;;2.55;;
71759;SDS011;59919;48.112;16.280;2023-06-22T13:06:58;7.65;;;3.13;;
71759;SDS011;59919;48.112;16.280;2023-06-22T13:09:29;5.15;;;3.03;;
71759;SDS011;59919;48.112;16.280;2023-06-22T13:12:03;3.67;;;2.38;;
71759;SDS011;59919;48.112;16.280;2023-06-22T13:14:34;7.15;;;2.90;;
71759;SDS011;59919;48.112;16.280;2023-06-22T13:17:05;6.20;;;2.60;;
71759;SDS011;59919;48.112;16.280;2023-06-22T13:19:38;8.68;;;2.53;;
71759;SDS011;59919;48.112;16.280;2023-06-22T13:22:31;4.53;;;2.72;;
71759;SDS011;59919;48.112;16.280;2023-06-22T13:25:04;5.32;;;2.58;;
71759;SDS011;59919;48.112;16.280;2023-06-22T13:27:36;4.60;;;2.25;;
71759;SDS011;59919;48.112;16.280;2023-06-22T13:30:12;4.82;;;2.40;;
71759;SDS011;59919;48.112;16.280;2023-06-22T13:32:47;5.82;;;2.50;;
71759;SDS011;59919;48.112;16.280;2023-06-22T13:35:18;8.25;;;2.83;;
71759;SDS011;59919;48.112;16.280;2023-06-22T13:37:49;7.13;;;2.80;;
71759;SDS011;59919;48.112;16.280;2023-06-22T13:40:22;5.65;;;2.90;;
71759;SDS011;59919;48.112;16.280;2023-06-22T13:42:55;6.03;;;2.38;;
71759;SDS011;59919;48.112;16.280;2023-06-22T13:45:28;4.30;;;2.22;;
71759;SDS011;59919;48.112;16.280;2023-06-22T13:48:05;3.63;;;2.28;;
71759;SDS011;59919;48.112;16.280;2023-06-22T13:50:37;4.50;;;2.22;;
71759;SDS011;59919;48.112;16.280;2023-06-22T13:53:10;4.60;;;2.50;;
71759;SDS011;59919;48.112;16.280;2023-06-22T13:55:42;4.15;;;2.30;;
71759;SDS011;59919;48.112;16.280;2023-06-22T13:58:15;5.60;;;2.38;;
71759;SDS011;59919;48.112;16.280;2023-06-22T14:00:46;3.78;;;2.22;;
71759;SDS011;59919;48.112;16.280;2023-06-22T14:03:20;4.32;;;2.40;;
71759;SDS011;59919;48.112;16.280;2023-06-22T14:05:51;4.80;;;2.63;;
71759;SDS011;59919;48.112;16.280;2023-06-22T14:08:24;4.10;;;2.40;;
71759;SDS011;59919;48.112;16.280;2023-06-22T14:10:56;5.07;;;2.40;;
71759;SDS011;59919;48.112;16.280;2023-06-22T14:13:27;5.28;;;2.90;;
71759;SDS011;59919;48.112;16.280;2023-06-22T14:15:58;3.55;;;2.70;;
71759;SDS011;59919;48.112;16.280;2023-06-22T14:18:29;3.40;;;2.45;;
71759;SDS011;59919;48.112;16.280;2023-06-22T14:21:02;3.63;;;2.33;;
71759;SDS011;59919;48.112;16.280;2023-06-22T14:23:33;4.00;;;2.25;;
71759;SDS011;59919;48.112;16.280;2023-06-22T14:26:04;4.07;;;2.40;;
71759;SDS011;59919;48.112;16.280;2023-06-22T14:28:36;3.72;;;2.40;;
71759;SDS011;59919;48.112;16.280;2023-06-22T14:31:07;4.00;;;2.35;;
71759;SDS011;59919;48.112;16.280;2023-06-22T14:33:38;4.47;;;2.50;;
71759;SDS011;59919;48.112;16.280;2023-06-22T14:36:11;4.35;;;2.50;;
71759;SDS011;59919;48.112;16.280;2023-06-22T14:38:43;3.35;;;2.30;;
71759;SDS011;59919;48.112;16.280;2023-06-22T14:41:16;2.70;;;2.08;;
71759;SDS011;59919;48.112;16.280;2023-06-22T14:43:48;3.85;;;2.25;;
71759;SDS011;59919;48.112;16.280;2023-06-22T14:46:20;4.57;;;2.20;;
71759;SDS011;59919;48.112;16.280;2023-06-22T14:48:53;3.95;;;2.38;;
71759;SDS011;59919;48.112;16.280;2023-06-22T14:51:24;5.80;;;2.60;;
71759;SDS011;59919;48.112;16.280;2023-06-22T14:53:55;5.25;;;2.20;;
71759;SDS011;59919;48.112;16.280;2023-06-22T14:56:27;3.92;;;2.20;;
71759;SDS011;59919;48.112;16.280;2023-06-22T14:58:58;5.03;;;2.33;;
71759;SDS011;59919;48.112;16.280;2023-06-22T15:01:30;4.93;;;2.50;;
71759;SDS011;59919;48.112;16.280;2023-06-22T15:04:04;3.45;;;2.38;;
71759;SDS011;59919;48.112;16.280;2023-06-22T15:06:40;3.30;;;2.15;;
71759;SDS011;59919;48.112;16.280;2023-06-22T15:09:12;3.58;;;2.20;;
71759;SDS011;59919;48.112;16.280;2023-06-22T15:11:44;4.50;;;2.42;;
71759;SDS011;59919;48.112;16.280;2023-06-22T15:14:15;4.22;;;2.00;;
71759;SDS011;59919;48.112;16.280;2023-06-22T15:16:46;2.08;;;1.67;;